Time;durP1;ratioP1;P1;durP2;ratioP2;P2;SDS_P1;SDS_P2;PMS_P1;PMS_P2;Temp;Humidity;BMP_temperature;BMP_pressure;BME280_temperature;BME280_humidity;BME280_pressure;Samples;Min_cycle;Max_cycle;Signal;HPM_P1;HPM_P2
2021/07/03 00:01:52;;;;;;;14.55;9.57;;;11.60;99.90;;;;;;5087158;28;20072;-67
2021/07/03 00:04:18;;;;;;;17.27;9.50;;;11.70;99.90;;;;;;5087613;28;20051;-68
2021/07/03 00:06:43;;;;;;;;;;;11.70;99.90;;;;;;5073655;28;20763;-68
2021/07/03 00:09:09;;;;;;;18.35;11.40;;;11.70;99.90;;;;;;5085651;28;19940;-67
2021/07/03 00:11:35;;;;;;;;;;;11.70;99.90;;;;;;5091655;28;20055;-68
2021/07/03 00:14:01;;;;;;;14.80;8.65;;;11.70;99.90;;;;;;5091318;28;19923;-67
2021/07/03 00:16:26;;;;;;;14.15;8.80;;;11.60;99.90;;;;;;5073819;28;20133;-67
2021/07/03 00:18:52;;;;;;;;;;;11.60;99.90;;;;;;5092541;28;20497;-67
2021/07/03 00:21:18;;;;;;;16.17;9.35;;;11.50;99.90;;;;;;5088726;28;19935;-67
2021/07/03 00:23:43;;;;;;;;;;;11.40;99.90;;;;;;5090238;28;20435;-68
2021/07/03 00:26:09;;;;;;;13.90;8.55;;;11.30;99.90;;;;;;5092194;28;20273;-67
2021/07/03 00:28:35;;;;;;;;;;;11.40;99.90;;;;;;5079413;28;20443;-67
2021/07/03 00:31:00;;;;;;;20.08;11.73;;;11.30;99.90;;;;;;5085985;28;20007;-67
2021/07/03 00:33:26;;;;;;;;;;;11.30;99.90;;;;;;5084979;28;20040;-68
2021/07/03 00:35:51;;;;;;;15.38;10.18;;;11.40;99.90;;;;;;5066525;28;19922;-68
2021/07/03 00:38:17;;;;;;;;;;;11.30;99.90;;;;;;5083065;28;20044;-67
2021/07/03 00:40:43;;;;;;;16.73;10.35;;;11.30;99.90;;;;;;5090715;28;20015;-67
2021/07/03 00:43:08;;;;;;;;;;;11.20;99.90;;;;;;5086822;28;20461;-68
2021/07/03 00:45:34;;;;;;;16.67;10.93;;;11.20;99.90;;;;;;5082453;28;20390;-67
2021/07/03 00:47:59;;;;;;;;;;;11.20;99.90;;;;;;5073385;28;20047;-68
2021/07/03 00:50:25;;;;;;;15.63;10.52;;;11.10;99.90;;;;;;5090815;28;19916;-68
2021/07/03 00:52:50;;;;;;;;;;;11.20;99.90;;;;;;5090074;28;20558;-67
2021/07/03 00:55:16;;;;;;;17.83;10.07;;;11.10;99.90;;;;;;5090873;28;20284;-68
2021/07/03 00:57:42;;;;;;;;;;;11.10;99.90;;;;;;5074844;28;20051;-68
2021/07/03 01:00:09;;;;;;;15.23;9.82;;;11.00;99.90;;;;;;5071187;28;19916;-67
2021/07/03 01:02:35;;;;;;;15.30;10.02;;;11.00;99.90;;;;;;5069049;28;20072;-67
2021/07/03 01:05:00;;;;;;;;;;;11.00;99.90;;;;;;5077226;28;20078;-68
2021/07/03 01:07:27;;;;;;;17.35;9.90;;;10.90;99.90;;;;;;5074077;28;19920;-68
2021/07/03 01:09:52;;;;;;;12.98;9.50;;;11.00;99.90;;;;;;5091321;28;20071;-68
2021/07/03 01:12:18;;;;;;;;;;;11.00;99.90;;;;;;5090510;28;20062;-68
2021/07/03 01:14:45;;;;;;;16.80;11.35;;;11.00;99.90;;;;;;5090640;28;19973;-68
2021/07/03 01:17:13;;;;;;;17.75;11.40;;;11.00;99.90;;;;;;5090439;28;20075;-68
2021/07/03 01:19:38;;;;;;;18.42;10.75;;;11.10;99.90;;;;;;5090767;28;20060;-68
2021/07/03 01:22:05;;;;;;;;;;;11.10;99.90;;;;;;5071458;28;20076;-68
2021/07/03 01:24:31;;;;;;;14.35;10.30;;;11.10;99.90;;;;;;5090557;28;20350;-68
2021/07/03 01:26:56;;;;;;;;;;;11.00;99.90;;;;;;5070504;28;20078;-68
2021/07/03 01:29:24;;;;;;;17.65;10.43;;;11.00;99.90;;;;;;5070218;28;19959;-68
2021/07/03 01:31:52;;;;;;;22.17;11.35;;;10.90;99.90;;;;;;5068516;28;20642;-68
2021/07/03 01:34:20;;;;;;;16.23;9.48;;;10.80;99.90;;;;;;5081969;28;20067;-68
2021/07/03 01:36:46;;;;;;;17.40;11.80;;;10.90;99.90;;;;;;5075492;28;20080;-67
2021/07/03 01:39:12;;;;;;;14.75;10.20;;;10.80;99.90;;;;;;5087784;28;20036;-67
2021/07/03 01:41:38;;;;;;;;;;;10.90;99.90;;;;;;5090259;28;20040;-67
2021/07/03 01:44:05;;;;;;;11.80;9.10;;;10.80;99.90;;;;;;5087788;28;19916;-67
2021/07/03 01:46:31;;;;;;;16.85;10.55;;;10.80;99.90;;;;;;5089305;28;20082;-67
2021/07/03 01:49:07;;;;;;;18.35;11.40;;;10.80;99.90;;;;;;5090075;28;20782;-67
2021/07/03 01:51:33;;;;;;;14.63;10.82;;;10.80;99.90;;;;;;5089745;28;20097;-66
2021/07/03 01:53:59;;;;;;;16.17;11.68;;;10.80;99.90;;;;;;5089198;28;20047;-66
2021/07/03 01:56:25;;;;;;;16.52;10.85;;;10.70;99.90;;;;;;5083575;28;20040;-67
2021/07/03 01:58:50;;;;;;;;;;;10.70;99.90;;;;;;5069480;28;20060;-67
2021/07/03 02:01:16;;;;;;;14.55;10.30;;;10.70;99.90;;;;;;5068914;28;19920;-67
2021/07/03 02:03:41;;;;;;;;;;;10.70;99.90;;;;;;5069193;28;20416;-67
2021/07/03 02:06:08;;;;;;;20.15;11.07;;;10.70;99.90;;;;;;5077453;28;19920;-66
2021/07/03 02:08:34;;;;;;;15.02;10.40;;;10.70;99.90;;;;;;5082491;28;20086;-67
2021/07/03 02:11:00;;;;;;;24.95;11.40;;;10.70;99.90;;;;;;5088662;28;20043;-67
2021/07/03 02:13:26;;;;;;;;;;;10.70;99.90;;;;;;5089126;28;20040;-67
2021/07/03 02:15:52;;;;;;;16.77;11.05;;;10.80;99.90;;;;;;5089215;28;19942;-67
2021/07/03 02:18:17;;;;;;;;;;;10.70;99.90;;;;;;5089848;28;20559;-66
2021/07/03 02:20:43;;;;;;;20.92;11.18;;;10.70;99.90;;;;;;5088537;28;19931;-67
2021/07/03 02:23:09;;;;;;;;;;;10.70;99.90;;;;;;5089173;28;20566;-67
2021/07/03 02:25:35;;;;;;;15.95;11.15;;;10.70;99.90;;;;;;5090023;28;19931;-66
2021/07/03 02:28:00;;;;;;;;;;;10.60;99.90;;;;;;5076991;28;20044;-66
2021/07/03 02:30:27;;;;;;;18.75;11.57;;;10.50;99.90;;;;;;5068485;28;19916;-67
2021/07/03 02:32:52;;;;;;;17.85;10.52;;;10.50;99.90;;;;;;5069816;28;20040;-67
2021/07/03 02:35:19;;;;;;;;;;;10.50;99.90;;;;;;5087889;28;20043;-67
2021/07/03 02:37:45;;;;;;;15.10;10.02;;;10.50;99.90;;;;;;5074263;28;19927;-67
2021/07/03 02:40:14;;;;;;;17.83;11.18;;;10.40;99.90;;;;;;5089466;28;20097;-67
2021/07/03 02:42:40;;;;;;;20.00;10.85;;;10.40;99.90;;;;;;5087850;28;20039;-66
2021/07/03 02:45:09;;;;;;;14.40;10.50;;;10.40;99.90;;;;;;5088738;28;20087;-67
2021/07/03 02:47:35;;;;;;;17.77;10.88;;;10.50;99.90;;;;;;5088438;28;20144;-66
2021/07/03 02:50:02;;;;;;;15.48;10.10;;;10.50;99.90;;;;;;5089714;28;20050;-67
2021/07/03 02:52:28;;;;;;;19.50;10.68;;;10.50;99.90;;;;;;5081500;28;20040;-67
2021/07/03 02:54:53;;;;;;;;;;;10.50;99.90;;;;;;5084211;28;20046;-67
2021/07/03 02:57:19;;;;;;;15.73;10.35;;;10.40;99.90;;;;;;5075306;28;19969;-67
2021/07/03 02:59:44;;;;;;;;;;;10.40;99.90;;;;;;5069465;28;20560;-66
2021/07/03 03:02:10;;;;;;;17.25;9.63;;;10.50;99.90;;;;;;5067297;28;19916;-67
2021/07/03 03:04:37;;;;;;;;;;;10.50;99.90;;;;;;5073541;28;20403;-68
2021/07/03 03:07:03;;;;;;;;;;;10.40;99.90;;;;;;5082744;28;19924;-67
2021/07/03 03:09:29;;;;;;;14.43;9.30;;;10.50;99.90;;;;;;5069183;28;19923;-69
2021/07/03 03:11:54;;;;;;;;;;;10.50;99.90;;;;;;5068408;28;20036;-70
2021/07/03 03:14:20;;;;;;;18.77;9.93;;;10.40;99.90;;;;;;5068572;28;20391;-68
2021/07/03 03:16:45;;;;;;;;;;;10.30;99.90;;;;;;5068417;28;20040;-68
2021/07/03 03:19:11;;;;;;;13.73;9.70;;;10.40;99.90;;;;;;5068719;28;20533;-69
2021/07/03 03:21:36;;;;;;;;;;;10.30;99.90;;;;;;5068178;28;20071;-69
2021/07/03 03:24:02;;;;;;;16.90;10.02;;;10.40;99.90;;;;;;5068071;28;19916;-68
2021/07/03 03:26:28;;;;;;;;;;;10.40;99.90;;;;;;5069076;28;20591;-69
2021/07/03 03:28:53;;;;;;;15.65;9.90;;;10.30;99.90;;;;;;5087268;28;19923;-67
2021/07/03 03:31:19;;;;;;;;;;;10.30;99.90;;;;;;5080469;28;20408;-67
2021/07/03 03:33:44;;;;;;;15.35;10.20;;;10.40;99.90;;;;;;5063955;28;20009;-69
2021/07/03 03:36:10;;;;;;;;;;;10.40;99.90;;;;;;5079736;28;20025;-69
2021/07/03 03:38:35;;;;;;;17.30;9.57;;;10.40;99.90;;;;;;5080585;28;19922;-69
2021/07/03 03:41:01;;;;;;;;;;;10.30;99.90;;;;;;5088505;28;20399;-68
2021/07/03 03:43:27;;;;;;;13.75;9.45;;;10.30;99.90;;;;;;5089138;28;19920;-68
2021/07/03 03:45:52;;;;;;;;;;;10.40;99.90;;;;;;5092095;28;20032;-68
2021/07/03 03:48:18;;;;;;;15.20;8.38;;;10.50;99.90;;;;;;5091179;28;19920;-68
2021/07/03 03:50:43;;;;;;;;;;;10.60;99.90;;;;;;5092444;28;20115;-68
2021/07/03 03:53:09;;;;;;;14.57;9.07;;;10.70;99.90;;;;;;5091866;28;20368;-68
2021/07/03 03:55:35;;;;;;;;;;;11.20;99.90;;;;;;5074404;28;20083;-68
2021/07/03 03:58:01;;;;;;;12.20;8.35;;;11.40;99.90;;;;;;5072306;28;19917;-68
2021/07/03 04:00:26;;;;;;;;;;;11.20;99.90;;;;;;5072335;28;20086;-68
2021/07/03 04:02:52;;;;;;;11.75;9.18;;;11.20;99.90;;;;;;5070851;28;19924;-70
2021/07/03 04:05:17;;;;;;;;;;;11.20;99.90;;;;;;5080465;28;20040;-68
2021/07/03 04:07:43;;;;;;;16.02;8.38;;;11.20;99.90;;;;;;5076572;28;19919;-68
2021/07/03 04:10:13;;;;;;;15.93;8.98;;;11.10;99.90;;;;;;5092233;28;20404;-68
2021/07/03 04:12:39;;;;;;;11.15;7.82;;;11.20;99.90;;;;;;5091235;28;20055;-68
2021/07/03 04:15:07;;;;;;;12.57;8.77;;;11.20;99.90;;;;;;5091091;28;20040;-69
2021/07/03 04:17:33;;;;;;;13.27;8.93;;;11.20;99.90;;;;;;5091906;28;20496;-69
2021/07/03 04:19:58;;;;;;;;;;;11.30;99.90;;;;;;5092725;28;20096;-69
2021/07/03 04:22:24;;;;;;;13.18;7.75;;;11.20;99.90;;;;;;5090103;28;19916;-68
2021/07/03 04:24:50;;;;;;;;;;;11.40;99.90;;;;;;5092262;28;20101;-69
2021/07/03 04:27:15;;;;;;;12.63;8.65;;;11.60;99.90;;;;;;5090595;28;19999;-69
2021/07/03 04:29:41;;;;;;;;;;;11.70;99.90;;;;;;5077288;28;20357;-70
2021/07/03 04:32:07;;;;;;;11.95;8.68;;;11.70;99.90;;;;;;5090329;28;20538;-68
2021/07/03 04:34:32;;;;;;;;;;;11.70;99.90;;;;;;5078672;28;20044;-69
2021/07/03 04:36:59;;;;;;;13.65;8.07;;;11.80;99.90;;;;;;5076094;28;19916;-69
2021/07/03 04:39:25;;;;;;;11.50;7.72;;;12.00;99.90;;;;;;5072709;28;20047;-69
2021/07/03 04:41:51;;;;;;;;;;;12.50;99.90;;;;;;5091596;28;20044;-69
2021/07/03 04:44:17;;;;;;;11.88;7.72;;;12.50;99.90;;;;;;5090773;28;20053;-70
2021/07/03 04:46:43;;;;;;;12.45;7.80;;;12.50;99.90;;;;;;5083976;28;20129;-69
2021/07/03 04:49:09;;;;;;;10.25;7.65;;;12.30;99.90;;;;;;5073361;28;20037;-69
2021/07/03 04:51:36;;;;;;;;;;;12.20;99.90;;;;;;5053478;28;20048;-70
2021/07/03 04:54:02;;;;;;;11.53;7.17;;;12.20;99.90;;;;;;5071042;28;19916;-69
2021/07/03 04:56:27;;;;;;;9.75;7.50;;;12.30;99.90;;;;;;5070396;28;20442;-69
2021/07/03 04:58:54;;;;;;;;;;;12.60;99.90;;;;;;5071639;28;20040;-70
2021/07/03 05:01:19;;;;;;;19.15;6.97;;;12.70;99.90;;;;;;5069674;28;20021;-68
2021/07/03 05:03:45;;;;;;;;;;;12.80;99.90;;;;;;5053253;28;20114;-70
2021/07/03 05:06:11;;;;;;;12.10;6.97;;;12.70;99.90;;;;;;5078895;28;19916;-68
2021/07/03 05:08:36;;;;;;;;;;;12.70;99.90;;;;;;5083593;28;20036;-68
2021/07/03 05:11:02;;;;;;;13.38;7.43;;;12.70;99.90;;;;;;5091154;28;19939;-69
2021/07/03 05:13:28;;;;;;;;;;;12.80;99.90;;;;;;5090525;28;20050;-69
2021/07/03 05:15:53;;;;;;;11.82;7.18;;;12.90;99.90;;;;;;5072205;28;20319;-69
2021/07/03 05:18:19;;;;;;;;;;;12.90;99.90;;;;;;5091358;28;20069;-68
2021/07/03 05:20:45;;;;;;;12.43;7.07;;;13.00;99.90;;;;;;5090342;28;20375;-68
2021/07/03 05:23:10;;;;;;;;;;;13.10;99.90;;;;;;5090312;28;20043;-70
2021/07/03 05:25:36;;;;;;;10.40;7.93;;;13.30;99.90;;;;;;5090430;28;19923;-68
2021/07/03 05:28:01;;;;;;;;;;;13.40;99.90;;;;;;5083094;28;20050;-68
2021/07/03 05:30:27;;;;;;;11.63;8.23;;;13.40;99.90;;;;;;5081015;28;20387;-70
2021/07/03 05:32:53;;;;;;;;;;;13.50;99.90;;;;;;5082744;28;20582;-70
2021/07/03 05:35:18;;;;;;;12.93;8.60;;;13.60;99.90;;;;;;5088572;28;20344;-70
2021/07/03 05:37:44;;;;;;;;;;;13.70;99.90;;;;;;5076441;28;20040;-70
2021/07/03 05:40:12;;;;;;;12.02;7.82;;;13.90;99.90;;;;;;5088660;28;20285;-69
2021/07/03 05:42:38;;;;;;;11.70;7.38;;;14.00;99.90;;;;;;5077622;28;20043;-69
2021/07/03 05:45:05;;;;;;;20.10;8.55;;;14.10;99.90;;;;;;5072491;28;20044;-69
2021/07/03 05:47:31;;;;;;;10.30;7.50;;;14.20;99.90;;;;;;5068657;28;20048;-69
2021/07/03 05:49:56;;;;;;;;;;;14.40;99.90;;;;;;5052439;28;20041;-68
2021/07/03 05:52:22;;;;;;;13.70;7.43;;;14.50;99.90;;;;;;5068418;28;20486;-69
2021/07/03 05:54:48;;;;;;;;;;;14.50;99.90;;;;;;5070477;28;20042;-69
2021/07/03 05:57:13;;;;;;;12.07;7.70;;;14.60;99.90;;;;;;5069777;28;19927;-69
2021/07/03 05:59:40;;;;;;;;;;;14.60;99.90;;;;;;5067246;28;20493;-69
2021/07/03 06:02:07;;;;;;;11.23;7.18;;;14.70;99.90;;;;;;5065191;28;19917;-69
2021/07/03 06:04:33;;;;;;;9.63;7.13;;;14.90;99.90;;;;;;5073880;28;20061;-68
2021/07/03 06:06:58;;;;;;;;;;;15.00;99.90;;;;;;5073478;28;20500;-68
2021/07/03 06:09:24;;;;;;;8.20;5.75;;;15.10;99.90;;;;;;5088068;28;20655;-68
2021/07/03 06:11:49;;;;;;;;;;;15.30;99.90;;;;;;5089208;28;20435;-69
2021/07/03 06:14:15;;;;;;;10.40;6.78;;;15.30;99.90;;;;;;5089241;28;19920;-69
2021/07/03 06:16:41;;;;;;;;;;;15.50;99.90;;;;;;5089969;28;20046;-69
2021/07/03 06:19:06;;;;;;;15.73;9.38;;;15.70;99.90;;;;;;5089418;28;19916;-69
2021/07/03 06:21:32;;;;;;;;;;;16.00;99.90;;;;;;5071507;28;20040;-68
2021/07/03 06:23:57;;;;;;;12.95;9.02;;;16.70;99.90;;;;;;5089369;28;19917;-68
2021/07/03 06:26:23;;;;;;;;;;;17.30;99.90;;;;;;5088287;28;20069;-68
2021/07/03 06:28:48;;;;;;;11.77;7.55;;;17.10;99.90;;;;;;5072986;28;19951;-68
2021/07/03 06:31:14;;;;;;;;;;;16.80;99.90;;;;;;5069297;28;20037;-69
2021/07/03 06:33:40;;;;;;;15.85;9.98;;;16.60;99.90;;;;;;5078360;28;19915;-69
2021/07/03 06:36:06;;;;;;;;;;;16.50;99.90;;;;;;5081370;28;20728;-69
2021/07/03 06:38:31;;;;;;;11.98;8.23;;;16.50;99.90;;;;;;5081414;28;19916;-69
2021/07/03 06:40:57;;;;;;;16.65;8.27;;;16.70;99.90;;;;;;5088857;28;20758;-68
2021/07/03 06:43:23;;;;;;;14.75;9.57;;;16.80;99.90;;;;;;5086553;28;20047;-68
2021/07/03 06:45:48;;;;;;;;;;;16.80;99.90;;;;;;5079896;28;20048;-69
2021/07/03 06:48:15;;;;;;;9.48;6.88;;;16.70;99.90;;;;;;5089311;28;20295;-68
2021/07/03 06:50:40;;;;;;;13.30;7.82;;;16.70;99.90;;;;;;5089025;28;20089;-69
2021/07/03 06:53:06;;;;;;;;;;;16.90;99.90;;;;;;5087542;28;20522;-68
2021/07/03 06:55:31;;;;;;;15.32;7.55;;;17.00;99.90;;;;;;5088533;28;19947;-68
2021/07/03 06:57:57;;;;;;;;;;;17.20;99.90;;;;;;5089745;28;20048;-68
2021/07/03 07:00:22;;;;;;;9.95;6.38;;;17.40;99.90;;;;;;5088547;28;20024;-68
2021/07/03 07:02:48;;;;;;;;;;;17.40;99.90;;;;;;5088819;28;20040;-67
2021/07/03 07:05:14;;;;;;;8.30;5.50;;;17.50;99.90;;;;;;5086903;28;20303;-67
2021/07/03 07:07:39;;;;;;;;;;;17.50;99.90;;;;;;5073937;28;20123;-67
2021/07/03 07:10:05;;;;;;;8.65;5.78;;;17.50;99.90;;;;;;5088662;28;19931;-67
2021/07/03 07:12:31;;;;;;;11.10;6.22;;;17.50;99.90;;;;;;5087539;28;20047;-67
2021/07/03 07:14:57;;;;;;;;;;;17.50;99.90;;;;;;5071416;28;20044;-67
2021/07/03 07:17:23;;;;;;;8.77;5.57;;;17.50;99.90;;;;;;5088320;28;19942;-67
2021/07/03 07:19:48;;;;;;;11.65;6.80;;;17.50;99.90;;;;;;5088909;28;20438;-67
2021/07/03 07:22:14;;;;;;;;;;;17.70;99.90;;;;;;5087619;28;20047;-67
2021/07/03 07:24:41;;;;;;;14.02;7.40;;;18.00;99.90;;;;;;5088466;28;19923;-67
2021/07/03 07:27:07;;;;;;;11.10;6.95;;;18.10;99.90;;;;;;5088450;28;20106;-67
2021/07/03 07:29:32;;;;;;;;;;;18.10;99.90;;;;;;5072674;28;20438;-66
2021/07/03 07:31:57;;;;;;;10.20;7.18;;;18.10;99.90;;;;;;5086786;28;19920;-67
2021/07/03 07:34:23;;;;;;;;;;;18.20;99.90;;;;;;5074960;28;20507;-66
2021/07/03 07:36:49;;;;;;;20.35;9.07;;;18.10;99.90;;;;;;5068174;28;19924;-67
2021/07/03 07:39:14;;;;;;;11.55;7.95;;;18.00;99.90;;;;;;5068433;28;20105;-67
2021/07/03 07:41:40;;;;;;;;;;;18.00;99.90;;;;;;5068005;28;20047;-67
2021/07/03 07:44:05;;;;;;;17.63;10.02;;;17.90;99.90;;;;;;5068314;28;19923;-67
2021/07/03 07:46:31;;;;;;;;;;;17.70;99.90;;;;;;5068131;28;20037;-67
2021/07/03 07:48:58;;;;;;;17.83;10.15;;;17.70;99.50;;;;;;5068304;28;19916;-67
2021/07/03 07:51:23;;;;;;;13.07;8.48;;;17.80;99.90;;;;;;5067786;28;20691;-68
2021/07/03 07:53:49;;;;;;;;;;;17.80;99.90;;;;;;5067973;28;20116;-67
2021/07/03 07:56:18;;;;;;;12.38;7.60;;;17.90;99.90;;;;;;5073018;28;19920;-67
2021/07/03 07:58:45;;;;;;;14.05;8.18;;;18.00;99.90;;;;;;5088079;28;20083;-68
2021/07/03 08:01:13;;;;;;;22.50;10.95;;;18.10;99.10;;;;;;5069800;28;20047;-67
2021/07/03 08:03:42;;;;;;;11.85;8.18;;;18.50;97.90;;;;;;5087796;28;20075;-67
2021/07/03 08:06:08;;;;;;;12.80;6.35;;;19.10;98.00;;;;;;5061839;28;20025;-68
2021/07/03 08:08:34;;;;;;;18.15;10.43;;;19.30;99.70;;;;;;5075697;28;20135;-67
2021/07/03 08:11:00;;;;;;;;;;;19.00;96.00;;;;;;5067989;28;20133;-67
2021/07/03 08:13:25;;;;;;;11.80;7.60;;;19.60;97.20;;;;;;5067935;28;20003;-67
2021/07/03 08:15:51;;;;;;;10.13;7.45;;;20.10;96.10;;;;;;5067255;28;20032;-68
2021/07/03 08:18:19;;;;;;;19.48;8.63;;;20.20;96.20;;;;;;5066649;28;20166;-67
2021/07/03 08:20:47;;;;;;;10.20;7.00;;;19.70;94.80;;;;;;5067826;28;20091;-67
2021/07/03 08:23:13;;;;;;;10.13;6.20;;;19.60;94.90;;;;;;5067114;28;20048;-67
2021/07/03 08:25:38;;;;;;;16.23;8.20;;;19.70;97.30;;;;;;5068610;28;20175;-68
2021/07/03 08:28:04;;;;;;;;;;;19.70;95.40;;;;;;5072358;28;20119;-68
2021/07/03 08:30:31;;;;;;;10.73;5.75;;;19.80;95.80;;;;;;5079899;28;19923;-67
2021/07/03 08:32:57;;;;;;;11.02;7.28;;;20.00;97.30;;;;;;5088064;28;20036;-67
2021/07/03 08:35:23;;;;;;;;;;;19.80;95.90;;;;;;5079613;28;20063;-66
2021/07/03 08:37:48;;;;;;;11.20;7.88;;;19.90;96.60;;;;;;5070268;28;19923;-67
2021/07/03 08:40:15;;;;;;;12.20;7.18;;;19.90;95.70;;;;;;5091603;28;20040;-67
2021/07/03 08:42:41;;;;;;;9.45;6.80;;;20.50;96.10;;;;;;5090486;28;20044;-67
2021/07/03 08:45:08;;;;;;;9.18;6.03;;;21.10;96.10;;;;;;5091435;28;20123;-66
2021/07/03 08:47:35;;;;;;;11.48;5.22;;;21.30;95.70;;;;;;5091139;28;20052;-68
2021/07/03 08:50:02;;;;;;;9.15;6.35;;;21.50;94.80;;;;;;5091047;28;20040;-67
2021/07/03 08:52:28;;;;;;;9.40;5.43;;;21.20;91.70;;;;;;5089819;28;20070;-68
2021/07/03 08:55:12;;;;;;;11.10;5.93;;;21.00;92.20;;;;;;5091625;28;20504;-67
2021/07/03 08:57:46;;;;;;;10.40;6.72;;;20.80;94.50;;;;;;5074699;28;20511;-68
2021/07/03 09:00:14;;;;;;;12.65;6.68;;;20.40;93.90;;;;;;5070706;28;20412;-66
2021/07/03 09:02:44;;;;;;;10.88;6.15;;;20.50;94.60;;;;;;5069994;28;20068;-66
2021/07/03 09:05:21;;;;;;;9.45;6.10;;;20.30;93.80;;;;;;5078680;28;20527;-67
2021/07/03 09:07:47;;;;;;;9.20;6.40;;;20.20;94.90;;;;;;5070469;28;20045;-68
2021/07/03 09:10:19;;;;;;;10.13;5.50;;;20.30;92.80;;;;;;5070602;28;20047;-67
2021/07/03 09:12:48;;;;;;;8.73;5.32;;;20.20;94.30;;;;;;5069726;28;20045;-67
2021/07/03 09:15:22;;;;;;;8.52;5.13;;;20.20;94.70;;;;;;5070048;28;20097;-67
2021/07/03 09:18:01;;;;;;;11.65;7.22;;;20.30;93.60;;;;;;5070871;28;20051;-67
2021/07/03 09:20:33;;;;;;;9.45;6.68;;;20.50;92.30;;;;;;5069021;28;20055;-67
2021/07/03 09:23:13;;;;;;;8.30;5.05;;;20.50;92.80;;;;;;5069827;28;20124;-67
2021/07/03 09:25:46;;;;;;;7.60;5.72;;;20.70;94.90;;;;;;5073062;28;20040;-67
2021/07/03 09:28:39;;;;;;;15.05;6.13;;;20.60;94.20;;;;;;5073987;28;20052;-67
2021/07/03 09:31:07;;;;;;;9.50;5.68;;;20.60;91.70;;;;;;5065846;28;20044;-67
2021/07/03 09:33:36;;;;;;;7.75;5.60;;;20.60;91.60;;;;;;5077503;28;20040;-67
2021/07/03 09:36:09;;;;;;;9.43;5.13;;;20.60;93.20;;;;;;5082248;28;20439;-68
2021/07/03 09:38:40;;;;;;;9.98;5.38;;;20.50;93.00;;;;;;5067997;28;20046;-67
2021/07/03 09:41:21;;;;;;;13.48;7.63;;;20.50;94.00;;;;;;5063276;28;20040;-68
2021/07/03 09:43:49;;;;;;;10.57;6.13;;;20.40;93.40;;;;;;5074981;28;20119;-67
2021/07/03 09:46:30;;;;;;;10.18;5.72;;;20.70;91.80;;;;;;5069272;28;20033;-67
2021/07/03 09:49:08;;;;;;;13.57;7.88;;;20.70;90.80;;;;;;5070633;28;20124;-68
2021/07/03 09:51:37;;;;;;;10.45;6.65;;;20.80;91.90;;;;;;5069249;28;20032;-68
2021/07/03 09:54:04;;;;;;;10.43;7.18;;;20.80;89.90;;;;;;5069519;28;20044;-68
2021/07/03 09:56:30;;;;;;;10.38;6.25;;;20.80;90.40;;;;;;5077001;28;20440;-68
2021/07/03 09:58:56;;;;;;;;;;;20.70;92.10;;;;;;5090178;28;20447;-68
2021/07/03 10:01:22;;;;;;;9.93;5.43;;;20.60;91.80;;;;;;5089029;28;19920;-68
2021/07/03 10:03:48;;;;;;;8.52;5.95;;;20.70;92.00;;;;;;5090131;28;20036;-68
2021/07/03 10:06:31;;;;;;;10.88;7.15;;;20.80;92.60;;;;;;5081418;28;20048;-68
2021/07/03 10:09:03;;;;;;;7.72;5.38;;;21.00;92.60;;;;;;5085754;28;20097;-68
2021/07/03 10:11:30;;;;;;;12.95;5.93;;;21.00;91.50;;;;;;5089617;28;20048;-67
2021/07/03 10:14:03;;;;;;;11.10;6.20;;;21.20;92.40;;;;;;5089639;28;20128;-67
2021/07/03 10:16:30;;;;;;;8.13;5.07;;;21.10;92.00;;;;;;5089566;28;20115;-68
2021/07/03 10:19:16;;;;;;;9.82;5.45;;;20.90;90.20;;;;;;5090053;28;20038;-67
2021/07/03 10:21:43;;;;;;;7.63;5.38;;;21.00;90.70;;;;;;5088761;28;20078;-68
2021/07/03 10:24:20;;;;;;;8.43;5.32;;;20.80;91.10;;;;;;5089312;28;20057;-67
2021/07/03 10:26:47;;;;;;;8.05;5.32;;;21.10;93.20;;;;;;5089831;28;20046;-68
2021/07/03 10:29:19;;;;;;;10.82;5.35;;;21.10;90.10;;;;;;5072752;28;20663;-68
2021/07/03 10:31:46;;;;;;;18.75;4.95;;;21.10;90.10;;;;;;5087563;28;20040;-68
2021/07/03 10:34:12;;;;;;;11.05;4.78;;;21.20;91.90;;;;;;5076602;28;20051;-68
2021/07/03 10:36:42;;;;;;;9.52;5.63;;;21.40;90.00;;;;;;5076337;28;20416;-68
2021/07/03 10:39:07;;;;;;;8.82;5.32;;;21.30;89.30;;;;;;5085795;28;20067;-68
2021/07/03 10:41:34;;;;;;;;;;;21.50;90.80;;;;;;5085217;28;20070;-68
2021/07/03 10:44:08;;;;;;;6.93;4.83;;;21.70;90.20;;;;;;5080691;28;20393;-68
2021/07/03 10:46:36;;;;;;;10.35;5.82;;;21.60;87.60;;;;;;5088741;28;20040;-69
2021/07/03 10:49:04;;;;;;;8.68;5.25;;;21.80;87.40;;;;;;5088928;28;20093;-67
2021/07/03 10:51:32;;;;;;;7.65;4.95;;;22.00;87.30;;;;;;5088668;28;20048;-67
2021/07/03 10:54:12;;;;;;;8.27;4.80;;;22.00;87.20;;;;;;5088673;28;20097;-67
2021/07/03 10:56:49;;;;;;;8.55;5.05;;;21.90;91.50;;;;;;5080824;28;20499;-67
2021/07/03 10:59:16;;;;;;;11.10;4.80;;;21.90;90.20;;;;;;5069425;28;20488;-68
2021/07/03 11:01:43;;;;;;;11.57;6.20;;;21.70;86.20;;;;;;5067589;28;20036;-68
2021/07/03 11:04:18;;;;;;;7.40;5.03;;;21.70;88.30;;;;;;5068615;28;20067;-67
2021/07/03 11:06:55;;;;;;;11.15;4.60;;;21.70;88.50;;;;;;5075266;28;20079;-67
2021/07/03 11:09:30;;;;;;;9.60;5.45;;;21.70;87.60;;;;;;5087412;28;20148;-68
2021/07/03 11:12:09;;;;;;;11.77;5.10;;;21.70;86.30;;;;;;5087314;28;20060;-67
2021/07/03 11:14:40;;;;;;;11.30;4.75;;;21.70;89.00;;;;;;5089148;28;20040;-68
2021/07/03 11:17:05;;;;;;;6.85;4.47;;;21.80;91.30;;;;;;5087819;28;20450;-67
2021/07/03 11:19:31;;;;;;;8.75;4.50;;;21.90;90.40;;;;;;5088748;28;20085;-68
2021/07/03 11:22:10;;;;;;;7.75;4.60;;;22.00;86.20;;;;;;5087409;28;20043;-66
2021/07/03 11:24:56;;;;;;;7.97;4.80;;;21.90;83.40;;;;;;5085393;28;20046;-67
2021/07/03 11:27:31;;;;;;;6.50;4.80;;;21.80;83.80;;;;;;5062098;28;20064;-67
2021/07/03 11:29:59;;;;;;;7.18;4.80;;;22.00;89.10;;;;;;5070466;28;20537;-67
2021/07/03 11:32:25;;;;;;;7.45;4.38;;;22.10;87.20;;;;;;5087222;28;20040;-67
2021/07/03 11:34:56;;;;;;;6.28;4.60;;;22.10;89.70;;;;;;5075493;28;20554;-67
2021/07/03 11:37:39;;;;;;;9.50;5.65;;;21.90;90.10;;;;;;5071977;28;20072;-67
2021/07/03 11:40:07;;;;;;;6.25;4.57;;;21.70;86.00;;;;;;5088492;28;20070;-67
2021/07/03 11:42:38;;;;;;;8.05;5.15;;;21.80;87.80;;;;;;5086384;28;20127;-67
2021/07/03 11:45:07;;;;;;;7.03;4.25;;;21.90;87.00;;;;;;5088373;28;20044;-68
2021/07/03 11:47:47;;;;;;;5.82;4.28;;;22.30;84.30;;;;;;5088685;28;20048;-67
2021/07/03 11:50:30;;;;;;;8.88;4.75;;;22.40;83.50;;;;;;5088127;28;20048;-67
2021/07/03 11:52:58;;;;;;;8.48;4.93;;;22.40;82.80;;;;;;5069572;28;20048;-67
2021/07/03 11:55:33;;;;;;;6.30;4.38;;;22.20;85.80;;;;;;5045047;28;20050;-68
2021/07/03 11:58:01;;;;;;;6.22;4.63;;;22.30;87.40;;;;;;5069512;28;20045;-68
2021/07/03 12:00:29;;;;;;;8.60;4.78;;;22.40;88.00;;;;;;5068482;28;20040;-69
2021/07/03 12:02:57;;;;;;;7.97;4.75;;;22.20;86.30;;;;;;5080071;28;20036;-69
2021/07/03 12:05:26;;;;;;;6.88;4.75;;;22.20;87.50;;;;;;5086836;28;20395;-68
2021/07/03 12:08:12;;;;;;;8.80;4.65;;;22.40;89.40;;;;;;5076938;28;20108;-69
2021/07/03 12:10:49;;;;;;;8.70;4.80;;;22.30;84.50;;;;;;5075762;28;20040;-68
2021/07/03 12:13:26;;;;;;;6.60;4.90;;;22.40;87.60;;;;;;5073791;28;20512;-69
2021/07/03 12:15:54;;;;;;;5.90;4.38;;;22.30;83.60;;;;;;5075503;28;20082;-69
2021/07/03 12:18:31;;;;;;;7.45;4.75;;;22.30;88.10;;;;;;5071434;28;20058;-69
2021/07/03 12:21:12;;;;;;;5.30;4.40;;;22.40;88.80;;;;;;5071415;28;20051;-69
2021/07/03 12:23:50;;;;;;;7.88;4.85;;;22.40;85.20;;;;;;5073585;28;20036;-69
2021/07/03 12:26:20;;;;;;;7.85;5.82;;;22.40;87.80;;;;;;5089285;28;20040;-69
2021/07/03 12:29:07;;;;;;;9.27;5.07;;;22.50;89.50;;;;;;5079978;28;20040;-69
2021/07/03 12:31:37;;;;;;;6.70;4.82;;;22.50;83.70;;;;;;5077670;28;20040;-69
2021/07/03 12:34:11;;;;;;;6.93;4.70;;;22.60;87.80;;;;;;5079689;28;20029;-69
2021/07/03 12:36:44;;;;;;;9.00;4.60;;;22.60;82.40;;;;;;5087136;28;20047;-69
2021/07/03 12:39:23;;;;;;;5.18;4.15;;;22.50;87.50;;;;;;5088559;28;20123;-68
2021/07/03 12:42:03;;;;;;;8.75;4.38;;;22.70;85.10;;;;;;5072379;28;20040;-68
2021/07/03 12:44:31;;;;;;;6.82;4.43;;;22.90;83.60;;;;;;5083107;28;20553;-68
2021/07/03 12:47:02;;;;;;;6.07;4.25;;;22.90;80.90;;;;;;5090711;28;20068;-69
2021/07/03 12:49:32;;;;;;;8.57;4.53;;;22.90;81.90;;;;;;5088560;28;20036;-67
2021/07/03 12:51:58;;;;;;;6.35;4.10;;;22.80;84.70;;;;;;5080670;28;20044;-68
2021/07/03 12:54:25;;;;;;;7.35;4.43;;;22.90;83.50;;;;;;5071669;28;20044;-68
2021/07/03 12:56:56;;;;;;;5.40;4.00;;;22.90;82.10;;;;;;5070696;28;20116;-68
2021/07/03 12:59:39;;;;;;;8.30;6.95;;;22.60;80.90;;;;;;5075643;28;20036;-68
2021/07/03 13:02:12;;;;;;;20.50;10.75;;;22.20;83.40;;;;;;5077385;28;20037;-68
2021/07/03 13:04:42;;;;;;;9.57;5.43;;;22.40;80.90;;;;;;5075590;28;20047;-68